createdAt,value
2022-09-27T00:01:42.124Z,4.65
2022-09-27T00:04:10.898Z,6.90
2022-09-27T00:06:40.777Z,6.72
2022-09-27T00:09:07.331Z,6.13
2022-09-27T00:11:34.692Z,9.57
2022-09-27T00:14:01.309Z,3.38
2022-09-27T00:16:29.423Z,6.22
2022-09-27T00:19:00.210Z,5.07
2022-09-27T00:21:26.851Z,6.90
2022-09-27T00:23:53.101Z,6.53
2022-09-27T00:26:19.360Z,5.43
2022-09-27T00:28:45.635Z,4.25
2022-09-27T00:31:22.888Z,7.63
2022-09-27T00:33:50.161Z,4.32
2022-09-27T00:36:17.179Z,4.43
2022-09-27T00:38:43.702Z,6.35
2022-09-27T00:41:20.992Z,7.40
2022-09-27T00:43:49.285Z,6.82
2022-09-27T00:46:19.166Z,1.10
2022-09-27T00:48:46.601Z,4.63
2022-09-27T00:51:12.915Z,6.68
2022-09-27T00:53:46.485Z,7.07
2022-09-27T00:56:16.035Z,5.65
2022-09-27T00:58:45.955Z,6.22
2022-09-27T01:01:14.153Z,3.67
2022-09-27T01:03:44.234Z,1.75
2022-09-27T01:06:10.601Z,3.70
2022-09-27T01:08:36.866Z,3.05
2022-09-27T01:11:12.308Z,4.90
2022-09-27T01:13:47.390Z,2.03
2022-09-27T01:16:21.787Z,3.13
2022-09-27T01:18:58.433Z,5.40
2022-09-27T01:21:37.728Z,5.50
2022-09-27T01:24:22.702Z,3.47
2022-09-27T01:26:55.185Z,5.35
2022-09-27T01:29:21.440Z,6.57
2022-09-27T01:31:56.750Z,4.20
2022-09-27T01:34:26.130Z,5.30
2022-09-27T01:36:58.541Z,5.28
2022-09-27T01:39:24.905Z,3.38
2022-09-27T01:42:12.966Z,5.63
2022-09-27T01:44:39.702Z,3.83
2022-09-27T01:47:11.929Z,6.25
2022-09-27T01:49:38.179Z,2.50
2022-09-27T01:52:06.218Z,3.42
2022-09-27T01:54:39.161Z,5.18
2022-09-27T01:57:07.136Z,4.15
2022-09-27T01:59:54.577Z,6.63
2022-09-27T02:02:23.274Z,6.68
2022-09-27T02:04:50.842Z,4.85
2022-09-27T02:07:20.769Z,5.50
2022-09-27T02:09:50.611Z,6.37
2022-09-27T02:12:19.084Z,8.77
2022-09-27T02:14:54.592Z,3.13
2022-09-27T02:17:20.893Z,6.93
2022-09-27T02:20:06.164Z,4.40
2022-09-27T02:22:39.261Z,5.38
2022-09-27T02:25:08.842Z,5.35
2022-09-27T02:27:41.119Z,6.72
2022-09-27T02:30:09.963Z,3.08
2022-09-27T02:32:36.307Z,5.63
2022-09-27T02:35:05.617Z,3.33
2022-09-27T02:37:32.275Z,6.30
2022-09-27T02:39:58.711Z,7.07
2022-09-27T02:42:25.672Z,3.92
2022-09-27T02:44:52.221Z,3.63
2022-09-27T02:47:41.532Z,6.53
2022-09-27T02:50:26.922Z,4.85
2022-09-27T02:52:53.147Z,5.72
2022-09-27T02:55:24.458Z,4.45
2022-09-27T02:58:09.275Z,6.22
2022-09-27T03:00:47.995Z,9.32
2022-09-27T03:03:21.154Z,6.13
2022-09-27T03:05:50.742Z,3.63
2022-09-27T03:08:17.264Z,6.10
2022-09-27T03:13:29.778Z,5.88
2022-09-27T03:16:00.694Z,5.65
2022-09-27T03:18:27.843Z,9.55
2022-09-27T03:20:54.699Z,8.82
2022-09-27T03:23:21.213Z,6.03
2022-09-27T03:25:47.500Z,5.88
2022-09-27T03:28:13.830Z,5.10
2022-09-27T03:30:42.097Z,9.35
2022-09-27T03:33:09.331Z,8.00
2022-09-27T03:35:36.834Z,7.07
2022-09-27T03:38:03.602Z,5.50
2022-09-27T03:40:30.340Z,5.13
2022-09-27T03:42:56.627Z,5.15
2022-09-27T03:45:22.886Z,7.43
2022-09-27T03:47:49.144Z,8.63
2022-09-27T03:50:15.472Z,6.32
2022-09-27T03:52:44.881Z,13.70
2022-09-27T03:55:11.764Z,4.28
2022-09-27T03:57:38.649Z,4.70
2022-09-27T04:00:05.744Z,8.88
2022-09-27T04:02:32.333Z,7.85
2022-09-27T04:04:58.903Z,8.57
2022-09-27T04:07:25.162Z,10.90
2022-09-27T04:09:51.422Z,8.45
2022-09-27T04:12:17.682Z,7.32
2022-09-27T04:14:43.948Z,8.50
2022-09-27T04:17:10.274Z,11.48
2022-09-27T04:19:37.703Z,8.65
2022-09-27T04:22:03.956Z,4.78
2022-09-27T04:24:32.909Z,11.95
2022-09-27T04:26:59.321Z,4.07
2022-09-27T04:29:25.781Z,4.65
2022-09-27T04:31:52.038Z,11.60
2022-09-27T04:34:18.289Z,10.10
2022-09-27T04:36:44.553Z,9.65
2022-09-27T04:39:10.914Z,6.90
2022-09-27T04:41:37.230Z,8.45
2022-09-27T04:44:03.809Z,7.75
2022-09-27T04:46:31.576Z,10.05
2022-09-27T04:48:59.265Z,8.85
2022-09-27T04:51:25.663Z,7.13
2022-09-27T04:53:51.971Z,5.68
2022-09-27T04:56:18.540Z,11.57
2022-09-27T04:58:44.790Z,6.93
2022-09-27T05:01:11.135Z,7.68
2022-09-27T05:03:37.853Z,7.03
2022-09-27T05:06:04.202Z,6.15
2022-09-27T05:08:30.605Z,5.40
2022-09-27T05:10:56.864Z,8.65
2022-09-27T05:13:23.157Z,4.97
2022-09-27T05:15:49.456Z,11.40
2022-09-27T05:18:15.780Z,3.90
2022-09-27T05:20:42.049Z,2.58
2022-09-27T05:23:10.611Z,3.70
2022-09-27T05:25:36.878Z,7.63
2022-09-27T05:28:03.616Z,7.10
2022-09-27T05:30:29.985Z,4.75
2022-09-27T05:32:56.278Z,11.98
2022-09-27T05:35:22.621Z,8.73
2022-09-27T05:37:56.235Z,7.03
2022-09-27T05:40:42.076Z,9.13
2022-09-27T05:43:08.777Z,7.43
2022-09-27T05:45:35.159Z,6.90
2022-09-27T05:48:01.925Z,11.00
2022-09-27T05:50:28.222Z,7.82
2022-09-27T05:52:54.599Z,8.43
2022-09-27T05:55:21.233Z,7.18
2022-09-27T05:57:58.198Z,9.43
2022-09-27T06:00:25.781Z,8.63
2022-09-27T06:03:06.869Z,5.80
2022-09-27T06:05:37.049Z,9.35
2022-09-27T06:08:07.222Z,6.35
2022-09-27T06:10:33.997Z,7.20
2022-09-27T06:13:02.285Z,11.35
2022-09-27T06:15:29.228Z,8.52
2022-09-27T06:17:55.889Z,9.57
2022-09-27T06:20:22.152Z,7.68
2022-09-27T06:22:48.434Z,8.90
2022-09-27T06:25:14.779Z,6.22
2022-09-27T06:27:41.041Z,9.02
2022-09-27T06:30:07.681Z,6.25
2022-09-27T06:32:33.995Z,5.68
2022-09-27T06:35:00.251Z,8.27
2022-09-27T06:37:26.969Z,4.03
2022-09-27T06:39:53.834Z,5.95
2022-09-27T06:42:20.191Z,5.32
2022-09-27T06:44:50.434Z,6.97
2022-09-27T06:47:17.114Z,2.00
2022-09-27T06:49:43.385Z,5.88
2022-09-27T06:52:10.367Z,4.43
2022-09-27T06:54:36.605Z,5.65
2022-09-27T06:57:02.941Z,6.38
2022-09-27T06:59:48.093Z,5.28
2022-09-27T07:02:14.403Z,3.90
2022-09-27T07:04:40.781Z,10.50
2022-09-27T07:07:07.042Z,6.13
2022-09-27T07:09:33.277Z,8.57
2022-09-27T07:12:00.141Z,11.25
2022-09-27T07:14:26.683Z,5.43
2022-09-27T07:16:52.971Z,5.85
2022-09-27T07:19:19.382Z,9.05
2022-09-27T07:21:46.049Z,4.65
2022-09-27T07:24:12.311Z,6.38
2022-09-27T07:26:38.621Z,5.93
2022-09-27T07:29:06.040Z,4.95
2022-09-27T07:31:32.297Z,8.35
2022-09-27T07:33:58.560Z,8.18
2022-09-27T07:36:24.818Z,5.93
2022-09-27T07:38:51.065Z,3.90
2022-09-27T07:41:17.519Z,8.35
2022-09-27T07:43:46.743Z,6.93
2022-09-27T07:46:13.568Z,6.60
2022-09-27T07:48:41.069Z,6.60
2022-09-27T07:51:08.407Z,6.38
2022-09-27T07:53:34.759Z,7.43
2022-09-27T07:56:01.202Z,5.82
2022-09-27T07:58:28.052Z,6.25
2022-09-27T08:00:56.176Z,7.90
2022-09-27T08:03:22.531Z,7.78
2022-09-27T08:05:48.830Z,5.65
2022-09-27T08:08:16.134Z,6.88
2022-09-27T08:10:44.352Z,10.43
2022-09-27T08:13:23.187Z,4.53
2022-09-27T08:15:52.509Z,7.35
2022-09-27T08:18:19.015Z,9.52
2022-09-27T08:20:45.945Z,4.25
2022-09-27T08:23:12.209Z,7.78
2022-09-27T08:25:38.480Z,6.03
2022-09-27T08:28:04.829Z,5.82
2022-09-27T08:30:34.877Z,7.68
2022-09-27T08:33:03.142Z,5.80
2022-09-27T08:35:29.761Z,5.38
2022-09-27T08:37:56.905Z,4.32
2022-09-27T08:40:24.729Z,5.93
2022-09-27T08:43:04.293Z,8.82
2022-09-27T08:45:46.900Z,5.55
2022-09-27T08:48:14.002Z,5.82
2022-09-27T08:50:47.099Z,5.57
2022-09-27T08:53:13.415Z,6.63
2022-09-27T08:55:44.807Z,8.23
2022-09-27T08:58:16.888Z,7.47
2022-09-27T09:00:43.544Z,6.15
2022-09-27T09:03:18.268Z,4.85
2022-09-27T09:05:51.025Z,3.05
2022-09-27T09:08:22.638Z,3.75
2022-09-27T09:11:09.747Z,3.92
2022-09-27T09:13:54.120Z,2.85
2022-09-27T09:16:35.377Z,4.10
2022-09-27T09:19:20.475Z,4.40
2022-09-27T09:22:08.440Z,6.03
2022-09-27T09:24:45.041Z,3.33
2022-09-27T09:27:17.427Z,4.18
2022-09-27T09:30:19.424Z,4.40
2022-09-27T09:32:46.768Z,3.50
2022-09-27T09:35:15.861Z,7.72
2022-09-27T09:37:52.119Z,4.65
2022-09-27T09:40:22.067Z,4.63
2022-09-27T09:42:54.626Z,3.28
2022-09-27T09:45:24.381Z,3.58
2022-09-27T09:48:08.843Z,6.78
2022-09-27T09:50:46.997Z,6.07
2022-09-27T09:53:32.038Z,5.72
2022-09-27T09:56:21.645Z,3.03
2022-09-27T09:58:51.911Z,4.07
2022-09-27T10:01:30.330Z,2.35
2022-09-27T10:03:57.056Z,6.15
2022-09-27T10:06:24.329Z,4.00
2022-09-27T10:08:54.588Z,4.05
2022-09-27T10:11:25.717Z,3.08
2022-09-27T10:13:52.423Z,6.88
2022-09-27T10:16:20.121Z,5.00
2022-09-27T10:18:50.009Z,2.40
2022-09-27T10:21:21.914Z,4.03
2022-09-27T10:24:12.313Z,5.00
2022-09-27T10:26:45.839Z,6.55
2022-09-27T10:29:16.353Z,4.22
2022-09-27T10:31:47.525Z,2.90
2022-09-27T10:34:22.852Z,2.75
2022-09-27T10:37:02.001Z,3.42
2022-09-27T10:39:28.259Z,3.28
2022-09-27T10:41:54.536Z,3.70
2022-09-27T10:44:25.141Z,2.10
2022-09-27T10:46:53.435Z,2.55
2022-09-27T10:49:26.582Z,3.15
2022-09-27T10:52:03.639Z,3.13
2022-09-27T10:54:32.010Z,6.35
2022-09-27T10:57:06.298Z,2.55
2022-09-27T10:59:40.566Z,2.83
2022-09-27T11:02:19.050Z,3.70
2022-09-27T11:05:02.216Z,4.25
2022-09-27T11:07:28.570Z,2.95
2022-09-27T11:09:57.184Z,2.03
2022-09-27T11:12:25.148Z,5.05
2022-09-27T11:14:56.822Z,4.63
2022-09-27T11:17:26.905Z,3.33
2022-09-27T11:20:11.569Z,5.38
2022-09-27T11:22:41.814Z,5.38
2022-09-27T11:25:31.913Z,5.32
2022-09-27T11:28:17.301Z,5.85
2022-09-27T11:30:55.873Z,2.15
2022-09-27T11:33:28.138Z,3.13
2022-09-27T11:36:07.851Z,2.65
2022-09-27T11:38:53.080Z,3.25
2022-09-27T11:41:22.827Z,2.28
2022-09-27T11:43:55.789Z,5.18
2022-09-27T11:46:37.168Z,5.40
2022-09-27T11:49:22.210Z,8.30
2022-09-27T11:52:03.936Z,5.20
2022-09-27T11:54:30.149Z,3.22
2022-09-27T11:57:04.141Z,3.13
2022-09-27T11:59:39.640Z,2.00
2022-09-27T12:02:06.115Z,1.30
2022-09-27T12:04:36.076Z,2.10
2022-09-27T12:07:23.115Z,1.17
2022-09-27T12:09:55.347Z,1.63
2022-09-27T12:12:35.394Z,3.08
2022-09-27T12:15:07.386Z,1.77
2022-09-27T12:17:35.945Z,2.38
2022-09-27T12:20:18.785Z,2.28
2022-09-27T12:22:59.261Z,3.53
2022-09-27T12:25:29.975Z,3.30
2022-09-27T12:28:15.212Z,2.97
2022-09-27T12:30:44.751Z,5.25
2022-09-27T12:33:30.727Z,5.07
2022-09-27T12:36:00.047Z,4.88
2022-09-27T12:38:49.623Z,3.20
2022-09-27T12:41:18.474Z,3.35
2022-09-27T12:43:48.782Z,2.30
2022-09-27T12:46:22.909Z,4.35
2022-09-27T12:48:55.317Z,4.65
2022-09-27T12:51:22.646Z,5.72
2022-09-27T12:53:51.887Z,3.15
2022-09-27T12:56:27.125Z,2.20
2022-09-27T12:59:10.943Z,3.35
2022-09-27T13:01:50.350Z,2.60
2022-09-27T13:04:24.124Z,3.03
2022-09-27T13:06:59.524Z,2.38
2022-09-27T13:09:32.365Z,3.67
2022-09-27T13:12:03.538Z,3.35
2022-09-27T13:14:33.206Z,1.90
2022-09-27T13:16:59.478Z,5.47
2022-09-27T13:19:45.494Z,4.10
2022-09-27T13:22:27.091Z,3.80
2022-09-27T13:24:56.376Z,2.78
2022-09-27T13:27:23.155Z,5.97
2022-09-27T13:29:52.781Z,2.65
2022-09-27T13:32:20.826Z,3.63
2022-09-27T13:34:48.768Z,3.22
2022-09-27T13:37:36.665Z,4.82
2022-09-27T13:40:18.487Z,4.15
2022-09-27T13:43:05.034Z,3.08
2022-09-27T13:45:51.719Z,3.95
2022-09-27T13:48:21.535Z,4.10
2022-09-27T13:50:47.809Z,3.10
2022-09-27T13:53:17.987Z,3.38
2022-09-27T13:55:48.444Z,6.53
2022-09-27T13:58:23.961Z,4.38
2022-09-27T14:00:55.357Z,4.60
2022-09-27T14:03:32.129Z,3.55
2022-09-27T14:06:03.555Z,6.85
2022-09-27T14:08:48.326Z,1.70
2022-09-27T14:11:19.764Z,2.13
2022-09-27T14:13:46.986Z,2.30
2022-09-27T14:16:15.125Z,4.47
2022-09-27T14:19:08.027Z,1.73
2022-09-27T14:21:34.336Z,3.17
2022-09-27T14:24:19.030Z,3.08
2022-09-27T14:26:45.403Z,4.60
2022-09-27T14:29:22.321Z,1.50
2022-09-27T14:32:03.320Z,4.70
2022-09-27T14:34:29.627Z,2.83
2022-09-27T14:37:14.728Z,3.58
2022-09-27T14:39:41.155Z,2.50
2022-09-27T14:42:20.018Z,3.42
2022-09-27T14:44:46.645Z,1.88
2022-09-27T14:47:23.030Z,3.25
2022-09-27T14:49:54.477Z,2.95
2022-09-27T14:52:22.529Z,2.03
2022-09-27T14:54:56.005Z,5.15
2022-09-27T14:57:22.454Z,3.55
2022-09-27T14:59:48.735Z,5.10
2022-09-27T15:02:17.458Z,12.27
2022-09-27T15:04:46.807Z,14.65
2022-09-27T15:07:17.564Z,16.88
2022-09-27T15:09:52.779Z,10.80
2022-09-27T15:12:27.031Z,3.92
2022-09-27T15:14:58.231Z,5.38
2022-09-27T15:17:25.268Z,5.95
2022-09-27T15:20:02.525Z,5.47
2022-09-27T15:22:34.072Z,3.63
2022-09-27T15:25:19.050Z,6.75
2022-09-27T15:27:49.979Z,4.30
2022-09-27T15:30:29.815Z,5.53
2022-09-27T15:32:56.817Z,4.97
2022-09-27T15:35:24.608Z,7.10
2022-09-27T15:37:51.228Z,5.30
2022-09-27T15:40:18.429Z,4.72
2022-09-27T15:42:58.154Z,6.63
2022-09-27T15:45:31.627Z,4.30
2022-09-27T15:48:06.055Z,8.35
2022-09-27T15:50:33.108Z,7.65
2022-09-27T15:52:59.713Z,3.45
2022-09-27T15:55:26.806Z,5.43
2022-09-27T15:57:59.197Z,4.40
2022-09-27T16:00:26.472Z,5.53
2022-09-27T16:02:54.042Z,6.30
2022-09-27T16:05:20.466Z,3.90
2022-09-27T16:07:46.713Z,5.38
2022-09-27T16:10:14.818Z,5.47
2022-09-27T16:12:41.537Z,5.60
2022-09-27T16:15:07.914Z,4.97
2022-09-27T16:17:37.736Z,3.35
2022-09-27T16:20:07.152Z,6.10
2022-09-27T16:22:33.421Z,4.00
2022-09-27T16:24:59.644Z,5.05
2022-09-27T16:27:27.327Z,7.45
2022-09-27T16:29:54.136Z,5.18
2022-09-27T16:32:21.523Z,5.07
2022-09-27T16:34:47.879Z,3.95
2022-09-27T16:37:14.324Z,6.13
2022-09-27T16:39:40.699Z,5.70
2022-09-27T16:42:07.746Z,4.18
2022-09-27T16:44:36.027Z,5.95
2022-09-27T16:47:03.605Z,3.35
2022-09-27T16:49:48.690Z,8.57
2022-09-27T16:52:16.198Z,8.13
2022-09-27T16:54:42.582Z,7.38
2022-09-27T16:57:09.113Z,6.18
2022-09-27T16:59:35.646Z,7.43
2022-09-27T17:02:01.962Z,5.70
2022-09-27T17:04:28.407Z,8.10
2022-09-27T17:06:55.193Z,9.00
2022-09-27T17:09:21.758Z,8.27
2022-09-27T17:11:48.034Z,5.85
2022-09-27T17:14:17.297Z,4.88
2022-09-27T17:16:44.137Z,7.07
2022-09-27T17:19:10.444Z,7.10
2022-09-27T17:21:38.151Z,7.07
2022-09-27T17:24:05.243Z,6.20
2022-09-27T17:26:31.957Z,49.00
2022-09-27T17:28:59.378Z,15.70
2022-09-27T17:31:26.280Z,15.13
2022-09-27T17:33:57.459Z,5.05
2022-09-27T17:36:25.601Z,6.15
2022-09-27T17:38:52.317Z,25.02
2022-09-27T17:41:20.037Z,12.75
2022-09-27T17:43:50.023Z,6.93
2022-09-27T17:46:17.369Z,4.28
2022-09-27T17:49:02.553Z,25.27
2022-09-27T17:51:29.308Z,8.02
2022-09-27T17:53:55.574Z,5.38
2022-09-27T17:56:23.169Z,7.75
2022-09-27T17:58:50.232Z,10.25
2022-09-27T18:01:17.556Z,11.88
2022-09-27T18:03:44.325Z,10.88
2022-09-27T18:06:12.113Z,5.38
2022-09-27T18:08:38.664Z,5.95
2022-09-27T18:11:05.049Z,5.57
2022-09-27T18:13:31.513Z,4.35
2022-09-27T18:15:59.150Z,10.30
2022-09-27T18:18:27.744Z,8.15
2022-09-27T18:20:55.093Z,15.13
2022-09-27T18:23:21.557Z,12.48
2022-09-27T18:25:54.829Z,21.58
2022-09-27T18:28:25.035Z,8.75
2022-09-27T18:30:51.278Z,8.43
2022-09-27T18:33:17.631Z,6.97
2022-09-27T18:35:43.917Z,9.38
2022-09-27T18:38:10.268Z,10.35
2022-09-27T18:40:55.238Z,5.82
2022-09-27T18:43:22.883Z,11.30
2022-09-27T18:45:49.110Z,11.00
2022-09-27T18:48:15.367Z,8.02
2022-09-27T18:50:41.612Z,8.50
2022-09-27T18:53:11.740Z,9.30
2022-09-27T18:55:38.687Z,10.90
2022-09-27T18:58:05.033Z,11.48
2022-09-27T19:00:31.358Z,10.15
2022-09-27T19:02:57.642Z,8.52
2022-09-27T19:05:23.942Z,9.00
2022-09-27T19:07:50.383Z,14.40
2022-09-27T19:10:16.698Z,13.82
2022-09-27T19:12:43.078Z,8.23
2022-09-27T19:15:09.649Z,11.00
2022-09-27T19:17:35.993Z,11.23
2022-09-27T19:20:02.565Z,10.80
2022-09-27T19:22:29.108Z,10.85
2022-09-27T19:24:55.377Z,13.63
2022-09-27T19:27:21.646Z,12.80
2022-09-27T19:29:47.904Z,10.75
2022-09-27T19:32:14.206Z,9.50
2022-09-27T19:34:40.449Z,13.65
2022-09-27T19:37:06.700Z,10.02
2022-09-27T19:39:33.033Z,12.93
2022-09-27T19:41:59.313Z,12.45
2022-09-27T19:44:26.046Z,17.10
2022-09-27T19:46:52.485Z,11.00
2022-09-27T19:49:18.879Z,17.15
2022-09-27T19:51:45.167Z,13.95
2022-09-27T19:54:11.543Z,18.88
2022-09-27T19:56:37.865Z,15.10
2022-09-27T19:59:09.428Z,13.40
2022-09-27T20:01:35.837Z,12.20
2022-09-27T20:04:02.387Z,14.35
2022-09-27T20:06:28.680Z,14.20
2022-09-27T20:08:55.684Z,12.30
2022-09-27T20:11:23.198Z,15.77
2022-09-27T20:13:51.573Z,13.27
2022-09-27T20:16:19.237Z,13.05
2022-09-27T20:18:46.807Z,17.88
2022-09-27T20:21:13.705Z,12.07
2022-09-27T20:23:40.346Z,11.70
2022-09-27T20:26:10.425Z,13.90
2022-09-27T20:28:40.863Z,13.00
2022-09-27T20:31:07.491Z,14.98
2022-09-27T20:33:46.680Z,13.07
2022-09-27T20:36:13.039Z,15.35
2022-09-27T20:38:39.868Z,15.13
2022-09-27T20:41:06.186Z,12.60
2022-09-27T20:43:32.517Z,15.88
2022-09-27T20:46:06.570Z,14.57
2022-09-27T20:48:33.139Z,14.18
2022-09-27T20:51:04.508Z,16.45
2022-09-27T20:53:31.293Z,13.57
2022-09-27T20:56:07.240Z,13.23
2022-09-27T20:58:33.502Z,12.85
2022-09-27T21:01:06.251Z,14.55
2022-09-27T21:03:32.737Z,14.73
2022-09-27T21:05:59.007Z,15.05
2022-09-27T21:08:25.366Z,13.70
2022-09-27T21:10:53.022Z,16.42
2022-09-27T21:13:19.594Z,25.42
2022-09-27T21:15:45.906Z,14.43
2022-09-27T21:18:12.265Z,16.83
2022-09-27T21:20:38.575Z,17.38
2022-09-27T21:23:04.809Z,15.80
2022-09-27T21:25:31.061Z,17.88
2022-09-27T21:28:00.699Z,16.52
2022-09-27T21:30:27.619Z,17.58
2022-09-27T21:32:54.972Z,14.48
2022-09-27T21:35:22.123Z,14.52
2022-09-27T21:37:48.653Z,14.38
2022-09-27T21:40:15.365Z,13.27
2022-09-27T21:42:41.762Z,13.90
2022-09-27T21:45:08.503Z,13.18
2022-09-27T21:47:34.748Z,12.70
2022-09-27T21:50:01.009Z,13.45
2022-09-27T21:52:27.774Z,13.02
2022-09-27T21:54:54.127Z,12.90
2022-09-27T21:57:20.414Z,12.05
2022-09-27T21:59:46.688Z,13.18
2022-09-27T22:02:12.979Z,14.48
2022-09-27T22:04:39.280Z,14.35
2022-09-27T22:07:05.522Z,11.68
2022-09-27T22:09:31.749Z,14.40
2022-09-27T22:11:57.991Z,13.25
2022-09-27T22:14:24.403Z,12.18
2022-09-27T22:16:50.710Z,10.68
2022-09-27T22:19:17.106Z,14.20
2022-09-27T22:21:43.760Z,8.68
2022-09-27T22:24:17.325Z,10.57
2022-09-27T22:26:48.452Z,13.38
2022-09-27T22:29:14.818Z,12.20
2022-09-27T22:31:41.300Z,12.77
2022-09-27T22:34:07.850Z,8.43
2022-09-27T22:36:34.625Z,10.13
2022-09-27T22:39:00.909Z,9.98
2022-09-27T22:41:29.288Z,9.95
2022-09-27T22:43:55.994Z,13.75
2022-09-27T22:46:22.270Z,10.00
2022-09-27T22:48:49.613Z,10.43
2022-09-27T22:51:16.001Z,8.55
2022-09-27T22:53:43.026Z,11.80
2022-09-27T22:56:12.307Z,11.15
2022-09-27T22:58:38.798Z,9.82
2022-09-27T23:01:13.275Z,8.82
2022-09-27T23:03:39.839Z,8.85
2022-09-27T23:06:07.349Z,12.68
2022-09-27T23:08:35.276Z,9.20
2022-09-27T23:11:04.824Z,7.70
2022-09-27T23:13:32.125Z,10.45
2022-09-27T23:16:06.323Z,9.30
2022-09-27T23:18:33.219Z,11.52
2022-09-27T23:21:03.260Z,10.23
2022-09-27T23:23:36.617Z,8.88
2022-09-27T23:26:04.946Z,9.73
2022-09-27T23:28:31.851Z,7.78
2022-09-27T23:31:08.783Z,8.45
2022-09-27T23:33:35.894Z,10.70
2022-09-27T23:36:02.763Z,8.63
2022-09-27T23:38:30.546Z,8.02
2022-09-27T23:40:57.269Z,11.52
2022-09-27T23:43:23.603Z,10.30
2022-09-27T23:45:50.764Z,8.30
2022-09-27T23:48:17.552Z,8.30
2022-09-27T23:50:48.145Z,7.80
2022-09-27T23:53:14.477Z,9.43
2022-09-27T23:55:40.733Z,7.90
2022-09-27T23:58:07.181Z,9.38
